Gill, Indiana
Current Conditions -  °F | °C
As of 9:35 AM on Saturday 25 Oct 2014 (Local Time) from KRSV Reporting Station
Clear Clear  
Wind Chill: 61°   Ceiling: Unl
Heat Index: 61°   Visibility: 10mi
Dew Point: 58°   Wind: 9mph
Humidity: 87%   Direction: 270°W
Pressure: 30.02"   Gusts: NA
Location:  39.0138°N, 87.523°W
Report Text: KRSV 251335Z AUTO 27008KT 10SM CLR 16/14 A3002 RMK AO2 T01630142
Loading
Personal Weather Stations






























Interactive Weather Map
Tropical Storm Tracking
New forecast layout! Learn more

10-Day Weather Forecast

Advertisements
Track Severe Weather on mobile